createdAt,value
2019-04-11T00:01:42.029Z,6.30
2019-04-11T00:03:13.662Z,6.55
2019-04-11T00:04:50.338Z,6.60
2019-04-11T00:06:25.689Z,6.37
2019-04-11T00:08:01.822Z,6.27
2019-04-11T00:09:37.296Z,6.17
2019-04-11T00:11:13.502Z,6.10
2019-04-11T00:12:50.311Z,4.83
2019-04-11T00:14:26.059Z,5.97
2019-04-11T00:16:01.404Z,5.83
2019-04-11T00:17:36.546Z,6.00
2019-04-11T00:19:12.263Z,5.70
2019-04-11T00:20:48.484Z,5.50
2019-04-11T00:22:24.072Z,5.53
2019-04-11T00:24:00.773Z,5.87
2019-04-11T00:25:36.287Z,5.40
2019-04-11T00:27:11.434Z,5.53
2019-04-11T00:28:47.888Z,6.07
2019-04-11T00:30:24.508Z,5.73
2019-04-11T00:32:01.264Z,5.60
2019-04-11T00:33:36.785Z,5.83
2019-04-11T00:35:12.285Z,5.80
2019-04-11T00:36:48.481Z,5.50
2019-04-11T00:38:24.332Z,5.97
2019-04-11T00:39:59.841Z,6.63
2019-04-11T00:41:35.621Z,5.83
2019-04-11T00:43:11.489Z,5.70
2019-04-11T00:44:48.090Z,5.90
2019-04-11T00:46:24.549Z,5.63
2019-04-11T00:48:01.736Z,5.60
2019-04-11T00:49:37.197Z,6.13
2019-04-11T00:51:13.881Z,5.73
2019-04-11T00:52:49.687Z,6.03
2019-04-11T00:54:25.232Z,6.30
2019-04-11T00:56:01.955Z,5.70
2019-04-11T00:57:37.559Z,5.87
2019-04-11T00:59:14.202Z,6.00
2019-04-11T01:00:49.744Z,6.23
2019-04-11T01:02:25.292Z,5.93
2019-04-11T01:04:01.332Z,5.50
2019-04-11T01:05:37.438Z,6.05
2019-04-11T01:07:12.971Z,5.53
2019-04-11T01:08:48.506Z,5.63
2019-04-11T01:10:24.525Z,5.73
2019-04-11T01:12:00.461Z,6.27
2019-04-11T01:13:46.662Z,5.37
2019-04-11T01:15:15.445Z,5.73
2019-04-11T01:16:57.047Z,5.13
2019-04-11T01:18:33.994Z,5.60
2019-04-11T01:20:11.244Z,5.63
2019-04-11T01:21:47.168Z,5.57
2019-04-11T01:23:22.800Z,5.50
2019-04-11T01:24:58.268Z,4.87
2019-04-11T01:26:34.994Z,5.87
2019-04-11T01:28:10.573Z,5.20
2019-04-11T01:29:47.304Z,5.87
2019-04-11T01:31:25.267Z,5.60
2019-04-11T01:33:00.794Z,5.73
2019-04-11T01:34:37.125Z,5.33
2019-04-11T01:36:13.750Z,6.20
2019-04-11T01:37:50.221Z,5.70
2019-04-11T01:39:30.071Z,5.80
2019-04-11T01:41:06.582Z,5.57
2019-04-11T01:42:42.234Z,5.93
2019-04-11T01:44:18.683Z,5.73
2019-04-11T01:45:54.240Z,6.00
2019-04-11T01:47:37.399Z,5.80
2019-04-11T01:49:28.328Z,6.03
2019-04-11T01:51:03.847Z,6.30
2019-04-11T01:52:39.368Z,5.80
2019-04-11T01:54:15.279Z,5.83
2019-04-11T01:55:50.516Z,5.90
2019-04-11T01:57:25.963Z,6.37
2019-04-11T01:59:02.694Z,5.87
2019-04-11T02:00:58.859Z,6.07
2019-04-11T02:02:50.697Z,5.40
2019-04-11T02:04:30.791Z,5.77
2019-04-11T02:06:07.659Z,6.13
2019-04-11T02:07:43.105Z,6.30
2019-04-11T02:09:18.618Z,6.45
2019-04-11T02:10:53.972Z,6.83
2019-04-11T02:12:29.145Z,6.33
2019-04-11T02:14:12.631Z,7.10
2019-04-11T02:15:42.677Z,7.07
2019-04-11T02:17:18.852Z,7.83
2019-04-11T02:18:54.077Z,7.47
2019-04-11T02:20:29.208Z,7.43
2019-04-11T02:22:06.494Z,6.60
2019-04-11T02:24:01.561Z,6.47
2019-04-11T02:25:50.640Z,6.67
2019-04-11T02:27:27.427Z,7.10
2019-04-11T02:29:03.458Z,6.70
2019-04-11T02:30:41.697Z,6.73
2019-04-11T02:32:18.524Z,6.42
2019-04-11T02:33:55.300Z,5.67
2019-04-11T02:35:31.220Z,6.37
2019-04-11T02:37:09.286Z,6.00
2019-04-11T02:38:46.794Z,6.83
2019-04-11T02:40:22.967Z,6.10
2019-04-11T02:41:59.154Z,6.80
2019-04-11T02:43:40.088Z,6.97
2019-04-11T02:45:27.882Z,6.08
2019-04-11T02:47:04.545Z,6.55
2019-04-11T02:48:31.102Z,6.40
2019-04-11T02:50:08.257Z,6.30
2019-04-11T02:51:45.046Z,6.23
2019-04-11T02:53:21.300Z,6.10
2019-04-11T02:54:58.573Z,6.65
2019-04-11T02:56:36.290Z,6.53
2019-04-11T02:58:12.514Z,6.37
2019-04-11T02:59:48.978Z,6.33
2019-04-11T03:01:26.090Z,6.73
2019-04-11T03:03:03.421Z,6.27
2019-04-11T03:04:39.327Z,6.60
2019-04-11T03:06:15.259Z,5.90
2019-04-11T03:07:52.280Z,6.80
2019-04-11T03:09:31.115Z,6.63
2019-04-11T03:11:27.766Z,5.80
2019-04-11T03:13:04.951Z,6.60
2019-04-11T03:15:01.095Z,6.30
2019-04-11T03:16:32.799Z,6.53
2019-04-11T03:18:01.499Z,6.40
2019-04-11T03:19:44.015Z,6.87
2019-04-11T03:21:14.437Z,7.42
2019-04-11T03:22:53.056Z,8.40
2019-04-11T03:24:26.351Z,7.80
2019-04-11T03:26:03.248Z,7.30
2019-04-11T03:27:40.946Z,7.20
2019-04-11T03:29:19.897Z,6.90
2019-04-11T03:31:26.303Z,6.97
2019-04-11T03:36:38.622Z,7.50
2019-04-11T03:37:55.113Z,7.37
2019-04-11T03:39:28.261Z,7.07
2019-04-11T03:41:00.539Z,7.57
2019-04-11T03:42:36.708Z,8.08
2019-04-11T03:44:03.984Z,8.43
2019-04-11T03:45:55.910Z,8.33
2019-04-11T03:47:27.851Z,9.30
2019-04-11T03:49:00.138Z,9.13
2019-04-11T03:50:30.533Z,8.10
2019-04-11T03:52:05.913Z,8.73
2019-04-11T03:53:43.208Z,8.53
2019-04-11T03:55:19.903Z,9.27
2019-04-11T03:56:57.293Z,8.40
2019-04-11T03:58:33.305Z,8.20
2019-04-11T04:00:12.503Z,8.87
2019-04-11T04:01:48.723Z,9.10
2019-04-11T04:03:26.638Z,8.77
2019-04-11T04:05:04.034Z,8.80
2019-04-11T04:06:41.338Z,9.23
2019-04-11T04:08:17.976Z,8.57
2019-04-11T04:09:54.498Z,9.20
2019-04-11T04:11:32.568Z,8.73
2019-04-11T04:13:14.279Z,9.23
2019-04-11T04:14:49.535Z,8.60
2019-04-11T04:16:36.643Z,8.70
2019-04-11T04:18:12.955Z,8.00
2019-04-11T04:19:51.790Z,8.10
2019-04-11T04:21:48.882Z,8.20
2019-04-11T04:23:27.335Z,7.62
2019-04-11T04:25:04.271Z,7.87
2019-04-11T04:26:41.140Z,7.80
2019-04-11T04:28:16.718Z,8.80
2019-04-11T04:29:57.273Z,8.20
2019-04-11T04:31:30.635Z,8.80
2019-04-11T04:33:07.140Z,8.30
2019-04-11T04:34:44.382Z,8.55
2019-04-11T04:36:20.131Z,8.35
2019-04-11T04:37:56.963Z,7.43
2019-04-11T04:39:34.506Z,7.50
2019-04-11T04:41:22.452Z,8.23
2019-04-11T04:42:54.336Z,8.33
2019-04-11T04:44:27.376Z,8.27
2019-04-11T04:46:17.011Z,8.80
2019-04-11T04:47:47.848Z,9.53
2019-04-11T04:49:18.628Z,8.00
2019-04-11T04:50:56.969Z,8.23
2019-04-11T04:52:32.665Z,8.10
2019-04-11T04:54:09.966Z,7.67
2019-04-11T04:55:45.835Z,7.87
2019-04-11T04:57:24.310Z,7.80
2019-04-11T04:58:59.908Z,7.60
2019-04-11T05:00:35.430Z,8.17
2019-04-11T05:02:12.653Z,8.73
2019-04-11T05:03:48.757Z,8.47
2019-04-11T05:05:26.557Z,8.17
2019-04-11T05:07:03.079Z,7.83
2019-04-11T05:08:39.077Z,8.90
2019-04-11T05:10:16.250Z,8.27
2019-04-11T05:11:53.025Z,8.93
2019-04-11T05:13:30.217Z,8.20
2019-04-11T05:15:08.021Z,8.33
2019-04-11T05:16:44.140Z,8.13
2019-04-11T05:18:20.767Z,7.43
2019-04-11T05:19:56.869Z,8.43
2019-04-11T05:21:33.080Z,8.27
2019-04-11T05:23:08.785Z,8.70
2019-04-11T05:24:45.548Z,8.13
2019-04-11T05:26:21.544Z,8.23
2019-04-11T05:27:58.166Z,8.50
2019-04-11T05:29:33.702Z,8.27
2019-04-11T05:31:10.184Z,8.40
2019-04-11T05:32:47.186Z,8.63
2019-04-11T05:34:23.840Z,9.08
2019-04-11T05:36:00.438Z,8.93
2019-04-11T05:37:37.669Z,8.57
2019-04-11T05:39:15.609Z,9.50
2019-04-11T05:40:50.456Z,9.40
2019-04-11T05:42:27.376Z,7.97
2019-04-11T05:44:07.706Z,8.77
2019-04-11T05:45:40.209Z,9.33
2019-04-11T05:47:18.572Z,8.66
2019-04-11T05:49:00.702Z,8.50
2019-04-11T05:50:36.206Z,8.63
2019-04-11T05:52:12.304Z,8.57
2019-04-11T05:53:51.326Z,8.90
2019-04-11T05:55:27.994Z,8.73
2019-04-11T05:57:03.870Z,9.57
2019-04-11T05:58:45.127Z,9.53
2019-04-11T06:00:26.311Z,9.77
2019-04-11T06:02:07.274Z,9.20
2019-04-11T06:03:43.226Z,9.30
2019-04-11T06:05:32.521Z,8.90
2019-04-11T06:07:11.937Z,8.77
2019-04-11T06:08:49.988Z,7.92
2019-04-11T06:10:28.263Z,8.00
2019-04-11T06:12:21.292Z,8.88
2019-04-11T06:13:59.564Z,9.07
2019-04-11T06:15:47.806Z,9.37
2019-04-11T06:17:23.927Z,9.30
2019-04-11T06:19:02.015Z,8.50
2019-04-11T06:20:43.056Z,8.50
2019-04-11T06:22:19.864Z,9.15
2019-04-11T06:24:14.167Z,9.25
2019-04-11T06:25:58.785Z,9.07
2019-04-11T06:27:47.958Z,9.47
2019-04-11T06:29:38.961Z,9.55
2019-04-11T06:31:33.620Z,9.37
2019-04-11T06:33:27.306Z,9.47
2019-04-11T06:35:21.963Z,8.88
2019-04-11T06:37:30.380Z,9.23
2019-04-11T06:39:11.360Z,9.60
2019-04-11T06:40:59.960Z,8.93
2019-04-11T06:42:37.376Z,8.58
2019-04-11T06:44:14.846Z,8.27
2019-04-11T06:46:09.096Z,9.50
2019-04-11T06:47:53.496Z,9.28
2019-04-11T06:49:44.650Z,9.63
2019-04-11T06:51:32.345Z,9.50
2019-04-11T06:53:08.981Z,8.93
2019-04-11T06:55:02.586Z,9.57
2019-04-11T06:56:43.411Z,7.83
2019-04-11T06:58:21.451Z,8.50
2019-04-11T06:59:58.781Z,9.18
2019-04-11T07:01:34.397Z,8.75
2019-04-11T07:03:19.812Z,8.03
2019-04-11T07:04:51.805Z,9.03
2019-04-11T07:06:29.380Z,8.95
2019-04-11T07:08:07.704Z,8.33
2019-04-11T07:09:49.104Z,7.90
2019-04-11T07:11:42.757Z,8.97
2019-04-11T07:13:32.728Z,8.73
2019-04-11T07:15:12.634Z,8.15
2019-04-11T07:17:07.984Z,8.27
2019-04-11T07:18:44.929Z,7.57
2019-04-11T07:20:41.321Z,8.70
2019-04-11T07:22:35.002Z,8.37
2019-04-11T07:24:14.610Z,7.87
2019-04-11T07:26:00.211Z,7.70
2019-04-11T07:27:36.649Z,8.40
2019-04-11T07:29:30.140Z,8.00
2019-04-11T07:31:23.458Z,8.13
2019-04-11T07:33:02.139Z,7.97
2019-04-11T07:34:56.536Z,7.53
2019-04-11T07:36:46.263Z,7.37
2019-04-11T07:38:24.204Z,8.03
2019-04-11T07:40:13.019Z,7.78
2019-04-11T07:41:52.494Z,6.70
2019-04-11T07:43:29.215Z,6.85
2019-04-11T07:45:14.167Z,7.43
2019-04-11T07:47:14.579Z,7.13
2019-04-11T07:48:40.209Z,7.27
2019-04-11T07:50:18.193Z,7.40
2019-04-11T07:51:55.177Z,7.30
2019-04-11T07:53:33.621Z,6.97
2019-04-11T07:55:10.967Z,7.27
2019-04-11T07:56:48.591Z,7.13
2019-04-11T07:58:25.883Z,6.50
2019-04-11T08:00:20.491Z,6.33
2019-04-11T08:02:08.685Z,6.20
2019-04-11T08:04:02.060Z,6.40
2019-04-11T08:05:58.504Z,6.55
2019-04-11T08:07:42.871Z,6.10
2019-04-11T08:09:22.876Z,6.10
2019-04-11T08:11:12.219Z,5.65
2019-04-11T08:12:49.703Z,6.50
2019-04-11T08:14:28.595Z,5.73
2019-04-11T08:16:22.637Z,6.07
2019-04-11T08:17:59.859Z,6.10
2019-04-11T08:19:53.391Z,5.90
2019-04-11T08:21:37.280Z,5.62
2019-04-11T08:23:13.778Z,6.37
2019-04-11T08:24:53.105Z,5.70
2019-04-11T08:26:46.423Z,5.30
2019-04-11T08:28:21.996Z,5.30
2019-04-11T08:30:00.302Z,5.20
2019-04-11T08:31:40.547Z,4.70
2019-04-11T08:33:18.324Z,4.70
2019-04-11T08:35:01.988Z,4.87
2019-04-11T08:36:37.988Z,5.03
2019-04-11T08:38:28.883Z,5.10
2019-04-11T08:40:09.404Z,5.40
2019-04-11T08:41:49.652Z,4.67
2019-04-11T08:43:28.790Z,4.93
2019-04-11T08:45:08.167Z,4.40
2019-04-11T08:46:45.342Z,4.37
2019-04-11T08:48:21.196Z,4.92
2019-04-11T08:49:58.204Z,4.70
2019-04-11T08:51:35.728Z,4.60
2019-04-11T08:53:17.046Z,4.30
2019-04-11T08:55:00.489Z,4.40
2019-04-11T08:56:38.979Z,4.40
2019-04-11T08:58:31.347Z,4.28
2019-04-11T09:00:13.842Z,4.27
2019-04-11T09:01:49.613Z,4.20
2019-04-11T09:03:35.731Z,4.60
2019-04-11T09:05:31.179Z,5.07
2019-04-11T09:07:07.341Z,4.72
2019-04-11T09:09:00.670Z,4.58
2019-04-11T09:10:56.102Z,4.33
2019-04-11T09:12:31.970Z,4.45
2019-04-11T09:14:26.401Z,4.75
2019-04-11T09:16:19.464Z,4.35
2019-04-11T09:18:03.373Z,4.40
2019-04-11T09:19:51.456Z,4.40
2019-04-11T09:21:46.587Z,4.40
2019-04-11T09:23:22.254Z,4.43
2019-04-11T09:25:10.781Z,3.83
2019-04-11T09:27:04.494Z,4.40
2019-04-11T09:28:41.873Z,4.50
2019-04-11T09:30:21.014Z,4.60
2019-04-11T09:31:58.199Z,4.63
2019-04-11T09:33:38.053Z,4.60
2019-04-11T09:35:24.777Z,5.10
2019-04-11T09:37:03.066Z,4.73
2019-04-11T09:38:40.413Z,5.20
2019-04-11T09:40:36.194Z,5.05
2019-04-11T09:42:23.147Z,4.85
2019-04-11T09:44:00.720Z,5.63
2019-04-11T09:45:54.242Z,4.97
2019-04-11T09:47:50.081Z,5.03
2019-04-11T09:49:27.247Z,4.73
2019-04-11T09:51:02.591Z,4.27
2019-04-11T09:52:40.936Z,4.62
2019-04-11T09:54:20.946Z,4.87
2019-04-11T09:56:15.123Z,4.57
2019-04-11T09:57:52.596Z,4.90
2019-04-11T09:59:29.849Z,4.80
2019-04-11T10:01:10.277Z,5.20
2019-04-11T10:02:48.472Z,4.60
2019-04-11T10:04:25.742Z,4.13
2019-04-11T10:06:05.649Z,4.40
2019-04-11T10:07:54.382Z,5.27
2019-04-11T10:09:46.911Z,5.20
2019-04-11T10:11:34.576Z,5.47
2019-04-11T10:13:16.367Z,5.67
2019-04-11T10:14:53.613Z,5.60
2019-04-11T10:16:35.962Z,5.17
2019-04-11T10:18:27.717Z,5.13
2019-04-11T10:20:04.538Z,6.00
2019-04-11T10:21:54.387Z,5.17
2019-04-11T10:23:40.817Z,4.83
2019-04-11T10:25:19.071Z,5.35
2019-04-11T10:27:12.707Z,5.17
2019-04-11T10:28:47.996Z,4.62
2019-04-11T10:30:34.039Z,4.90
2019-04-11T10:32:11.267Z,5.27
2019-04-11T10:34:04.646Z,5.03
2019-04-11T10:35:46.219Z,4.90
2019-04-11T10:37:21.893Z,5.40
2019-04-11T10:38:59.118Z,4.90
2019-04-11T10:40:52.451Z,5.33
2019-04-11T10:42:28.689Z,5.20
2019-04-11T10:44:05.549Z,4.80
2019-04-11T10:45:59.039Z,4.75
2019-04-11T10:47:36.739Z,4.70
2019-04-11T10:49:24.633Z,5.80
2019-04-11T10:51:18.093Z,5.77
2019-04-11T10:52:55.336Z,5.33
2019-04-11T10:54:32.548Z,5.43
2019-04-11T10:56:19.068Z,4.80
2019-04-11T10:58:05.259Z,5.00
2019-04-11T10:59:46.978Z,4.60
2019-04-11T11:01:29.982Z,4.80
2019-04-11T11:03:10.060Z,5.00
2019-04-11T11:04:53.693Z,5.50
2019-04-11T11:06:31.519Z,6.00
2019-04-11T11:08:15.636Z,5.35
2019-04-11T11:09:52.858Z,5.57
2019-04-11T11:11:30.432Z,5.10
2019-04-11T11:13:13.976Z,5.07
2019-04-11T11:15:04.132Z,5.10
2019-04-11T11:16:45.328Z,5.90
2019-04-11T11:18:43.996Z,5.27
2019-04-11T11:20:26.708Z,5.70
2019-04-11T11:21:59.876Z,5.03
2019-04-11T11:23:42.852Z,5.40
2019-04-11T11:25:37.137Z,5.37
2019-04-11T11:27:13.781Z,5.15
2019-04-11T11:28:51.075Z,5.28
2019-04-11T11:30:29.488Z,5.50
2019-04-11T11:32:07.161Z,5.27
2019-04-11T11:33:44.891Z,5.33
2019-04-11T11:35:27.046Z,5.78
2019-04-11T11:37:18.931Z,5.23
2019-04-11T11:38:56.097Z,5.13
2019-04-11T11:40:42.454Z,5.37
2019-04-11T11:42:30.496Z,5.00
2019-04-11T11:44:07.743Z,5.47
2019-04-11T11:46:01.278Z,5.55
2019-04-11T11:47:47.118Z,5.50
2019-04-11T11:49:38.844Z,5.60
2019-04-11T11:51:01.533Z,5.23
2019-04-11T11:52:51.704Z,5.10
2019-04-11T11:54:29.429Z,5.43
2019-04-11T11:56:07.574Z,4.70
2019-04-11T11:57:44.904Z,5.25
2019-04-11T11:59:30.877Z,5.08
2019-04-11T12:01:09.413Z,5.27
2019-04-11T12:03:02.393Z,5.58
2019-04-11T12:04:58.812Z,5.30
2019-04-11T12:06:36.898Z,5.23
2019-04-11T12:08:30.816Z,5.30
2019-04-11T12:10:19.481Z,4.80
2019-04-11T12:11:57.022Z,5.17
2019-04-11T12:13:39.458Z,4.90
2019-04-11T12:15:17.706Z,4.47
2019-04-11T12:17:05.257Z,4.75
2019-04-11T12:18:58.463Z,4.63
2019-04-11T12:20:44.722Z,4.90
2019-04-11T12:22:20.089Z,5.55
2019-04-11T12:24:01.133Z,4.53
2019-04-11T12:25:34.371Z,4.40
2019-04-11T12:27:13.014Z,4.47
2019-04-11T12:28:52.168Z,4.30
2019-04-11T12:30:41.995Z,4.40
2019-04-11T12:32:25.293Z,5.28
2019-04-11T12:34:06.024Z,4.63
2019-04-11T12:35:50.685Z,5.10
2019-04-11T12:37:27.954Z,5.50
2019-04-11T12:39:14.041Z,6.00
2019-04-11T12:41:07.877Z,5.72
2019-04-11T12:42:43.918Z,5.50
2019-04-11T12:44:29.479Z,4.93
2019-04-11T12:46:29.706Z,5.40
2019-04-11T12:48:00.361Z,4.70
2019-04-11T12:49:52.738Z,4.57
2019-04-11T12:51:34.264Z,5.00
2019-04-11T12:53:09.564Z,5.07
2019-04-11T12:54:55.348Z,5.17
2019-04-11T12:56:44.412Z,5.23
2019-04-11T12:58:36.442Z,5.13
2019-04-11T13:00:17.484Z,5.57
2019-04-11T13:01:57.172Z,5.20
2019-04-11T13:03:52.185Z,5.50
2019-04-11T13:05:27.714Z,5.50
2019-04-11T13:07:11.937Z,5.10
2019-04-11T13:08:55.271Z,5.05
2019-04-11T13:10:30.793Z,5.13
2019-04-11T13:12:08.102Z,5.10
2019-04-11T13:14:00.386Z,5.30
2019-04-11T13:15:37.537Z,4.55
2019-04-11T13:17:23.745Z,5.07
2019-04-11T13:19:03.502Z,4.53
2019-04-11T13:20:47.392Z,4.55
2019-04-11T13:22:27.477Z,4.83
2019-04-11T13:24:10.162Z,4.85
2019-04-11T13:26:03.944Z,4.72
2019-04-11T13:27:41.774Z,4.97
2019-04-11T13:29:35.315Z,4.87
2019-04-11T13:31:12.575Z,4.77
2019-04-11T13:32:50.068Z,4.67
2019-04-11T13:34:27.259Z,4.97
2019-04-11T13:36:07.090Z,4.50
2019-04-11T13:38:00.448Z,4.40
2019-04-11T13:39:35.974Z,4.60
2019-04-11T13:41:29.490Z,4.37
2019-04-11T13:43:24.643Z,5.07
2019-04-11T13:45:00.165Z,4.43
2019-04-11T13:46:35.475Z,4.73
2019-04-11T13:48:30.158Z,4.83
2019-04-11T13:50:16.235Z,4.23
2019-04-11T13:52:02.522Z,4.27
2019-04-11T13:53:37.858Z,4.70
2019-04-11T13:55:18.201Z,4.60
2019-04-11T13:57:12.308Z,3.70
2019-04-11T13:58:52.306Z,3.75
2019-04-11T14:00:38.730Z,4.10
2019-04-11T14:02:14.422Z,3.92
2019-04-11T14:04:00.580Z,4.22
2019-04-11T14:05:46.254Z,4.60
2019-04-11T14:07:24.108Z,4.40
2019-04-11T14:09:10.168Z,4.30
2019-04-11T14:11:03.963Z,4.10
2019-04-11T14:12:39.782Z,4.47
2019-04-11T14:14:16.954Z,4.40
2019-04-11T14:15:54.181Z,4.50
2019-04-11T14:17:31.367Z,3.97
2019-04-11T14:19:12.399Z,3.93
2019-04-11T14:20:49.719Z,4.00
2019-04-11T14:22:36.112Z,4.40
2019-04-11T14:24:29.659Z,3.73
2019-04-11T14:26:07.536Z,4.20
2019-04-11T14:27:45.890Z,3.90
2019-04-11T14:29:39.068Z,3.97
2019-04-11T14:31:21.950Z,3.77
2019-04-11T14:32:56.214Z,4.05
2019-04-11T14:34:36.430Z,3.60
2019-04-11T14:36:11.722Z,3.83
2019-04-11T14:37:48.919Z,4.07
2019-04-11T14:39:35.203Z,3.60
2019-04-11T14:41:16.311Z,4.20
2019-04-11T14:42:53.821Z,3.80
2019-04-11T14:44:30.975Z,3.80
2019-04-11T14:46:24.223Z,4.30
2019-04-11T14:48:17.663Z,3.93
2019-04-11T14:49:54.819Z,4.40
2019-04-11T14:51:46.294Z,4.05
2019-04-11T14:53:38.962Z,4.00
2019-04-11T14:55:19.004Z,3.72
2019-04-11T14:56:58.528Z,3.70
2019-04-11T14:58:53.851Z,3.77
2019-04-11T15:00:31.282Z,4.10
2019-04-11T15:02:24.327Z,4.00
2019-04-11T15:04:17.457Z,4.10
2019-04-11T15:06:00.002Z,4.37
2019-04-11T15:07:37.272Z,3.87
2019-04-11T15:09:18.210Z,4.13
2019-04-11T15:11:02.528Z,4.03
2019-04-11T15:12:39.628Z,3.57
2019-04-11T15:14:34.028Z,3.38
2019-04-11T15:16:27.097Z,3.90
2019-04-11T15:18:04.207Z,3.80
2019-04-11T15:19:41.373Z,3.30
2019-04-11T15:21:18.552Z,3.23
2019-04-11T15:22:58.604Z,3.30
2019-04-11T15:24:37.489Z,3.13
2019-04-11T15:26:15.710Z,3.33
2019-04-11T15:27:53.790Z,3.50
2019-04-11T15:29:30.180Z,3.90
2019-04-11T15:31:08.843Z,3.50
2019-04-11T15:32:58.625Z,4.00
2019-04-11T15:34:35.856Z,3.63
2019-04-11T15:36:16.118Z,3.50
2019-04-11T15:38:09.401Z,2.90
2019-04-11T15:39:49.337Z,3.00
2019-04-11T15:41:26.037Z,3.63
2019-04-11T15:43:12.335Z,3.27
2019-04-11T15:45:01.678Z,3.40
2019-04-11T15:46:39.045Z,3.30
2019-04-11T15:48:17.804Z,3.25
2019-04-11T15:50:11.094Z,3.20
2019-04-11T15:51:49.476Z,3.20
2019-04-11T15:53:36.970Z,3.00
2019-04-11T15:55:31.205Z,3.03
2019-04-11T15:57:12.220Z,3.70
2019-04-11T15:58:47.845Z,3.10
2019-04-11T16:00:34.849Z,2.83
2019-04-11T16:02:28.418Z,3.00
2019-04-11T16:04:05.595Z,3.25
2019-04-11T16:05:48.460Z,3.60
2019-04-11T16:07:41.861Z,3.13
2019-04-11T16:09:17.968Z,3.07
2019-04-11T16:10:58.073Z,2.90
2019-04-11T16:12:44.524Z,2.67
2019-04-11T16:14:20.322Z,3.00
2019-04-11T16:16:07.025Z,2.85
2019-04-11T16:17:58.130Z,2.90
2019-04-11T16:19:37.969Z,2.63
2019-04-11T16:21:18.749Z,3.00
2019-04-11T16:22:54.953Z,2.83
2019-04-11T16:24:37.431Z,2.77
2019-04-11T16:26:14.657Z,2.43
2019-04-11T16:27:54.886Z,2.60
2019-04-11T16:29:44.012Z,2.70
2019-04-11T16:31:20.209Z,2.60
2019-04-11T16:32:58.622Z,3.00
2019-04-11T16:34:48.242Z,2.40
2019-04-11T16:36:27.051Z,2.70
2019-04-11T16:38:03.270Z,2.62
2019-04-11T16:39:59.191Z,2.63
2019-04-11T16:41:53.891Z,2.90
2019-04-11T16:43:32.055Z,2.63
2019-04-11T16:45:26.232Z,2.80
2019-04-11T16:47:19.029Z,2.60
2019-04-11T16:48:55.909Z,2.90
2019-04-11T16:50:32.285Z,2.90
2019-04-11T16:52:08.584Z,2.50
2019-04-11T16:53:44.122Z,2.40
2019-04-11T16:55:19.672Z,2.83
2019-04-11T16:56:55.435Z,2.50
2019-04-11T16:58:30.949Z,2.73
2019-04-11T17:00:10.474Z,3.20
2019-04-11T17:01:46.034Z,2.80
2019-04-11T17:03:24.965Z,3.46
2019-04-11T17:04:59.924Z,2.92
2019-04-11T17:06:55.357Z,3.27
2019-04-11T17:08:32.039Z,2.87
2019-04-11T17:10:09.103Z,3.05
2019-04-11T17:11:44.644Z,2.80
2019-04-11T17:13:20.239Z,2.97
2019-04-11T17:14:55.776Z,2.63
2019-04-11T17:16:31.364Z,2.80
2019-04-11T17:18:06.890Z,3.05
2019-04-11T17:19:42.501Z,2.73
2019-04-11T17:21:18.018Z,2.90
2019-04-11T17:22:56.842Z,2.70
2019-04-11T17:24:32.384Z,2.50
2019-04-11T17:26:07.899Z,2.77
2019-04-11T17:27:45.425Z,2.60
2019-04-11T17:29:24.658Z,2.57
2019-04-11T17:30:58.430Z,2.80
2019-04-11T17:32:33.996Z,2.77
2019-04-11T17:34:09.555Z,2.70
2019-04-11T17:35:45.079Z,2.90
2019-04-11T17:37:20.628Z,2.73
2019-04-11T17:38:56.169Z,2.93
2019-04-11T17:40:31.687Z,3.00
2019-04-11T17:42:07.212Z,2.65
2019-04-11T17:43:46.774Z,2.50
2019-04-11T17:45:20.629Z,2.80
2019-04-11T17:46:56.776Z,2.50
2019-04-11T17:48:32.861Z,2.52
2019-04-11T17:50:08.839Z,2.52
2019-04-11T17:51:55.183Z,2.90
2019-04-11T17:53:22.639Z,2.60
2019-04-11T17:55:00.286Z,2.83
2019-04-11T17:56:36.211Z,2.87
2019-04-11T17:58:11.751Z,2.90
2019-04-11T17:59:48.779Z,2.60
2019-04-11T18:01:25.735Z,2.77
2019-04-11T18:03:01.229Z,2.83
2019-04-11T18:04:37.820Z,3.02
2019-04-11T18:06:16.883Z,3.00
2019-04-11T18:07:50.552Z,3.00
2019-04-11T18:09:26.473Z,3.10
2019-04-11T18:11:02.042Z,2.73
2019-04-11T18:12:37.859Z,2.60
2019-04-11T18:14:13.375Z,2.50
2019-04-11T18:15:49.965Z,2.87
2019-04-11T18:17:25.496Z,2.53
2019-04-11T18:19:01.051Z,2.43
2019-04-11T18:20:37.595Z,2.57
2019-04-11T18:22:14.219Z,2.77
2019-04-11T18:23:50.669Z,2.90
2019-04-11T18:25:26.370Z,2.83
2019-04-11T18:27:01.893Z,2.80
2019-04-11T18:28:37.412Z,2.80
2019-04-11T18:30:14.251Z,2.50
2019-04-11T18:31:50.577Z,2.67
2019-04-11T18:33:26.139Z,2.80
2019-04-11T18:35:02.517Z,2.67
2019-04-11T18:36:38.075Z,2.70
2019-04-11T18:38:13.599Z,2.50
2019-04-11T18:39:49.513Z,2.40
2019-04-11T18:41:25.093Z,2.70
2019-04-11T18:43:00.891Z,2.60
2019-04-11T18:44:36.424Z,2.83
2019-04-11T18:46:11.956Z,2.75
2019-04-11T18:47:47.467Z,2.53
2019-04-11T18:49:22.984Z,3.00
2019-04-11T18:50:58.992Z,2.67
2019-04-11T18:52:34.577Z,2.70
2019-04-11T18:54:10.105Z,2.80
2019-04-11T18:55:45.625Z,2.97
2019-04-11T18:57:21.139Z,2.87
2019-04-11T18:58:56.669Z,3.00
2019-04-11T19:00:32.192Z,2.87
2019-04-11T19:02:09.849Z,2.73
2019-04-11T19:03:45.252Z,2.90
2019-04-11T19:05:28.547Z,3.00
2019-04-11T19:06:59.269Z,2.40
2019-04-11T19:08:34.815Z,2.83
2019-04-11T19:10:14.430Z,2.70
2019-04-11T19:11:51.398Z,2.73
2019-04-11T19:13:26.087Z,2.77
2019-04-11T19:15:01.652Z,2.80
2019-04-11T19:16:37.169Z,2.60
2019-04-11T19:18:16.036Z,2.50
2019-04-11T19:19:49.923Z,2.40
2019-04-11T19:21:25.432Z,2.50
2019-04-11T19:23:00.969Z,2.60
2019-04-11T19:24:36.492Z,2.40
2019-04-11T19:26:14.471Z,3.65
2019-04-11T19:27:53.323Z,3.60
2019-04-11T19:29:26.537Z,3.00
2019-04-11T19:31:02.056Z,2.90
2019-04-11T19:32:37.650Z,2.90
2019-04-11T19:34:13.162Z,2.40
2019-04-11T19:35:48.684Z,2.50
2019-04-11T19:37:24.454Z,2.40
2019-04-11T19:39:01.245Z,2.50
2019-04-11T19:40:38.553Z,2.50
2019-04-11T19:42:18.729Z,2.30
2019-04-11T19:43:51.952Z,2.40
2019-04-11T19:45:27.473Z,2.50
2019-04-11T19:47:03.253Z,2.70
2019-04-11T19:48:39.021Z,2.90
2019-04-11T19:50:16.192Z,2.93
2019-04-11T19:51:51.784Z,3.20
2019-04-11T19:53:27.340Z,3.30
2019-04-11T19:55:05.367Z,2.90
2019-04-11T19:56:42.945Z,2.70
2019-04-11T19:58:20.473Z,2.83
2019-04-11T19:59:56.004Z,2.73
2019-04-11T20:01:31.519Z,2.77
2019-04-11T20:03:08.483Z,2.30
2019-04-11T20:04:46.532Z,2.77
2019-04-11T20:06:21.825Z,2.30
2019-04-11T20:07:57.697Z,3.03
2019-04-11T20:09:33.178Z,3.30
2019-04-11T20:11:08.722Z,2.50
2019-04-11T20:12:44.236Z,2.97
2019-04-11T20:14:19.760Z,2.70
2019-04-11T20:15:56.436Z,2.60
2019-04-11T20:17:43.476Z,2.60
2019-04-11T20:19:09.171Z,2.85
2019-04-11T20:20:46.082Z,3.43
2019-04-11T20:22:21.618Z,3.07
2019-04-11T20:23:57.120Z,3.07
2019-04-11T20:25:32.713Z,3.33
2019-04-11T20:27:08.302Z,3.23
2019-04-11T20:28:43.908Z,2.80
2019-04-11T20:30:19.450Z,2.60
2019-04-11T20:31:54.967Z,2.50
2019-04-11T20:33:33.861Z,2.60
2019-04-11T20:35:10.139Z,3.40
2019-04-11T20:36:45.276Z,3.00
2019-04-11T20:38:20.812Z,3.10
2019-04-11T20:39:56.325Z,3.17
2019-04-11T20:41:31.850Z,2.73
2019-04-11T20:43:10.055Z,2.93
2019-04-11T20:44:44.635Z,2.77
2019-04-11T20:46:20.153Z,2.90
2019-04-11T20:47:59.860Z,2.83
2019-04-11T20:49:34.855Z,2.90
2019-04-11T20:51:10.390Z,2.60
2019-04-11T20:52:45.898Z,2.57
2019-04-11T20:54:21.415Z,2.42
2019-04-11T20:55:57.009Z,2.33
2019-04-11T20:57:32.794Z,2.60
2019-04-11T20:59:10.297Z,2.27
2019-04-11T21:00:50.684Z,2.30
2019-04-11T21:02:23.313Z,2.50
2019-04-11T21:04:00.322Z,2.40
2019-04-11T21:05:36.047Z,2.20
2019-04-11T21:07:11.593Z,2.30
2019-04-11T21:08:47.189Z,2.40
2019-04-11T21:10:22.735Z,2.40
2019-04-11T21:11:58.229Z,2.40
2019-04-11T21:13:38.076Z,2.40
2019-04-11T21:15:11.027Z,2.43
2019-04-11T21:16:46.556Z,2.20
2019-04-11T21:18:25.652Z,2.50
2019-04-11T21:19:59.335Z,2.37
2019-04-11T21:21:35.939Z,2.68
2019-04-11T21:23:11.465Z,2.60
2019-04-11T21:24:46.984Z,2.77
2019-04-11T21:26:22.516Z,2.60
2019-04-11T21:27:59.154Z,2.50
2019-04-11T21:29:36.576Z,2.47
2019-04-11T21:31:12.108Z,2.93
2019-04-11T21:32:47.631Z,2.50
2019-04-11T21:34:23.226Z,2.70
2019-04-11T21:36:01.355Z,2.80
2019-04-11T21:37:36.968Z,2.45
2019-04-11T21:39:12.472Z,2.65
2019-04-11T21:40:48.000Z,2.60
2019-04-11T21:42:23.513Z,2.52
2019-04-11T21:43:59.023Z,3.10
2019-04-11T21:45:36.454Z,2.70
2019-04-11T21:47:13.103Z,2.70
2019-04-11T21:48:48.603Z,3.00
2019-04-11T21:50:25.086Z,2.35
2019-04-11T21:52:03.142Z,2.60
2019-04-11T21:53:38.819Z,2.70
2019-04-11T21:55:15.987Z,2.92
2019-04-11T21:56:52.098Z,2.77
2019-04-11T21:58:27.658Z,2.73
2019-04-11T22:00:03.539Z,2.70
2019-04-11T22:01:41.951Z,2.53
2019-04-11T22:03:17.925Z,2.52
2019-04-11T22:04:53.503Z,2.70
2019-04-11T22:06:30.541Z,2.70
2019-04-11T22:08:06.254Z,2.80
2019-04-11T22:09:42.079Z,2.97
2019-04-11T22:11:17.603Z,2.90
2019-04-11T22:12:53.113Z,3.00
2019-04-11T22:14:28.634Z,2.60